עמוד ראשי
METAR-TAF:

METAR-TAF

שדות תעופה :

פס, מרוקו

קו רוחב: 33-56N, קו אורך: 004-59W, גובה: 579מטר

תצפית מזג אוויר נוכחית

הדו"ח נערך לפני 16דקות, בשעה 13:00 UTC
רוח 7קשר מכיוון צפון-מערב, משתנה בין מערב ו צפון/צפון-מזרח
טמפרטורת 32 צלסיוס
לחות 32%
לחץ 1010 hPa
ראות 10 קילומטר או יותר
מעט עננים בגובה 3300רגל

METAR: GMFF 251300Z 32007KT 280V030 9999 FEW033 32/13 Q1010 NOSIG

זמן: 14:16 (13:16 UTC)

תחזית

הדו"ח נערך לפני 2 שעות ו 16דקות, בשעה 11:00 UTC
תחזית בתוקף מ 25 ב 12 UTC עד 26 ב 18 UTC
רוח 10קשר מכיוון צפון/צפון-מערב
ראות 10 קילומטר או יותר
ללא עננים שבסיסם נמוך מ 5000 רגל או קומולונימבוס
יעשה מ
25 ב 18 UTC עד 25 ב 20 UTC
רוח 6קשר מכיוון מערב

TAF: GMFF 251100Z 2512/2618 34010KT CAVOK BECMG 2518/2520 28006KT

תצפיות ותחזיות מזג אוויר לגבי יותר מ- 4,000 שדות תעופה ברחבי העולם. דוחות METAR ו- TAF.

התחנות הזמינות מסומנות בנקודות צהובות ואדומות על גבי המפה.

העבר את העכבר לנקודה הצבעונית על מנת לראות את שם התחנה.

לאחר מכן, לחץ כדי לראות את תוכן ואת תחזיות מזג האוויר.

כדי לשנות את המפה: לחץ על הכפתורים הירוקים עם הפלוס השחור כדי להתקרב; על הכפתור הירוק עם המקף כדי להתרחק; או בחיצים הירוקים למפות סמוכות.


METAR-TAF: